Time;durP1;ratioP1;P1;durP2;ratioP2;P2;SDS_P1;SDS_P2;PMS_P1;PMS_P2;Temp;Humidity;BMP_temperature;BMP_pressure;BME280_temperature;BME280_humidity;BME280_pressure;Samples;Min_cycle;Max_cycle;Signal;HPM_P1;HPM_P2
2023/12/21 00:00:59;;;;;;;1.3;0.9;;;;;;;;;;;;;
2023/12/21 00:03:24;;;;;;;0.9;0.9;;;;;;;;;;;;;
2023/12/21 00:05:51;;;;;;;1.2;1.1;;;;;;;;;;;;;
2023/12/21 00:08:15;;;;;;;1.1;1;;;;;;;;;;;;;
2023/12/21 00:10:40;;;;;;;1.4;1.1;;;;;;;;;;;;;
2023/12/21 00:13:07;;;;;;;1.3;1.2;;;;;;;;;;;;;
2023/12/21 00:15:34;;;;;;;1.2;1.1;;;;;;;;;;;;;
2023/12/21 00:17:59;;;;;;;1.5;1;;;;;;;;;;;;;
2023/12/21 00:20:25;;;;;;;1.6;1.1;;;;;;;;;;;;;
2023/12/21 00:22:50;;;;;;;1.9;1.2;;;;;;;;;;;;;
2023/12/21 00:25:16;;;;;;;1.7;1;;;;;;;;;;;;;
2023/12/21 00:27:41;;;;;;;1.1;1;;;;;;;;;;;;;
2023/12/21 00:30:09;;;;;;;1.1;0.9;;;;;;;;;;;;;
2023/12/21 00:32:35;;;;;;;1.6;0.9;;;;;;;;;;;;;
2023/12/21 00:35:03;;;;;;;0.9;0.9;;;;;;;;;;;;;
2023/12/21 00:37:28;;;;;;;0.6;0.6;;;;;;;;;;;;;
2023/12/21 00:39:56;;;;;;;1.7;0.8;;;;;;;;;;;;;
2023/12/21 00:42:19;;;;;;;0.5;0.5;;;;;;;;;;;;;
2023/12/21 00:44:48;;;;;;;1.1;0.7;;;;;;;;;;;;;
2023/12/21 00:47:12;;;;;;;0.9;0.7;;;;;;;;;;;;;
2023/12/21 00:49:38;;;;;;;1;0.9;;;;;;;;;;;;;
2023/12/21 00:52:03;;;;;;;0.9;0.8;;;;;;;;;;;;;
2023/12/21 00:54:30;;;;;;;1.5;0.8;;;;;;;;;;;;;
2023/12/21 00:56:55;;;;;;;1.8;1;;;;;;;;;;;;;
2023/12/21 00:59:20;;;;;;;0.8;0.7;;;;;;;;;;;;;
2023/12/21 01:01:45;;;;;;;1;0.9;;;;;;;;;;;;;
2023/12/21 01:04:10;;;;;;;2;1.2;;;;;;;;;;;;;
2023/12/21 01:06:42;;;;;;;1.1;1;;;;;;;;;;;;;
2023/12/21 01:09:10;;;;;;;1.1;0.8;;;;;;;;;;;;;
2023/12/21 01:11:34;;;;;;;1.1;1;;;;;;;;;;;;;
2023/12/21 01:14:44;;;;;;;1.2;1;;;;;;;;;;;;;
2023/12/21 01:16:36;;;;;;;1.4;1;;;;;;;;;;;;;
2023/12/21 01:19:01;;;;;;;1.3;0.9;;;;;;;;;;;;;
2023/12/21 01:21:26;;;;;;;1.2;1;;;;;;;;;;;;;
2023/12/21 01:23:51;;;;;;;1.2;1.1;;;;;;;;;;;;;
2023/12/21 01:26:17;;;;;;;1.2;1.1;;;;;;;;;;;;;
2023/12/21 01:28:42;;;;;;;0.6;0.6;;;;;;;;;;;;;
2023/12/21 01:31:11;;;;;;;0.7;0.6;;;;;;;;;;;;;
2023/12/21 01:33:36;;;;;;;1.5;0.9;;;;;;;;;;;;;
2023/12/21 01:36:03;;;;;;;0.8;0.7;;;;;;;;;;;;;
2023/12/21 01:38:29;;;;;;;0.8;0.8;;;;;;;;;;;;;
2023/12/21 01:40:55;;;;;;;0.8;0.8;;;;;;;;;;;;;
2023/12/21 01:43:21;;;;;;;0.9;0.9;;;;;;;;;;;;;
2023/12/21 01:45:47;;;;;;;0.8;0.8;;;;;;;;;;;;;
2023/12/21 01:48:13;;;;;;;0.7;0.7;;;;;;;;;;;;;
2023/12/21 01:50:40;;;;;;;1;0.6;;;;;;;;;;;;;
2023/12/21 01:53:05;;;;;;;1.5;1.3;;;;;;;;;;;;;
2023/12/21 01:55:31;;;;;;;50.4;32.9;;;;;;;;;;;;;
2023/12/21 01:57:57;;;;;;;10.5;7;;;;;;;;;;;;;
2023/12/21 02:00:25;;;;;;;1.5;0.9;;;;;;;;;;;;;
2023/12/21 02:02:50;;;;;;;0.8;0.8;;;;;;;;;;;;;
2023/12/21 02:05:19;;;;;;;0.8;0.8;;;;;;;;;;;;;
2023/12/21 02:07:47;;;;;;;2.5;2.3;;;;;;;;;;;;;
2023/12/21 02:10:13;;;;;;;5.6;5.2;;;;;;;;;;;;;
2023/12/21 02:12:38;;;;;;;4.9;4.5;;;;;;;;;;;;;
2023/12/21 02:15:03;;;;;;;3.7;3.4;;;;;;;;;;;;;
2023/12/21 02:17:30;;;;;;;2.7;2.5;;;;;;;;;;;;;
2023/12/21 02:19:55;;;;;;;1;1;;;;;;;;;;;;;
2023/12/21 02:22:22;;;;;;;1;0.9;;;;;;;;;;;;;
2023/12/21 02:24:47;;;;;;;0.7;0.7;;;;;;;;;;;;;
2023/12/21 02:27:12;;;;;;;0.7;0.7;;;;;;;;;;;;;
2023/12/21 02:29:40;;;;;;;0.7;0.7;;;;;;;;;;;;;
2023/12/21 02:32:07;;;;;;;0.5;0.5;;;;;;;;;;;;;
2023/12/21 02:34:32;;;;;;;1.2;0.7;;;;;;;;;;;;;
2023/12/21 02:36:57;;;;;;;1.4;0.7;;;;;;;;;;;;;
2023/12/21 02:39:26;;;;;;;0.6;0.6;;;;;;;;;;;;;
2023/12/21 02:41:51;;;;;;;1.2;0.8;;;;;;;;;;;;;
2023/12/21 02:44:16;;;;;;;0.5;0.5;;;;;;;;;;;;;
2023/12/21 02:46:41;;;;;;;0.6;0.6;;;;;;;;;;;;;
2023/12/21 02:49:08;;;;;;;0.8;0.5;;;;;;;;;;;;;
2023/12/21 02:51:33;;;;;;;0.5;0.5;;;;;;;;;;;;;
2023/12/21 02:53:58;;;;;;;0.6;0.6;;;;;;;;;;;;;
2023/12/21 02:56:25;;;;;;;0.6;0.5;;;;;;;;;;;;;
2023/12/21 02:58:50;;;;;;;0.8;0.7;;;;;;;;;;;;;
2023/12/21 03:01:17;;;;;;;1;0.7;;;;;;;;;;;;;
2023/12/21 03:03:42;;;;;;;0.7;0.7;;;;;;;;;;;;;
2023/12/21 03:06:13;;;;;;;1.1;0.8;;;;;;;;;;;;;
2023/12/21 03:08:39;;;;;;;0.5;0.5;;;;;;;;;;;;;
2023/12/21 03:11:04;;;;;;;0.5;0.5;;;;;;;;;;;;;
2023/12/21 03:13:30;;;;;;;0.7;0.6;;;;;;;;;;;;;
2023/12/21 03:15:55;;;;;;;0.6;0.5;;;;;;;;;;;;;
2023/12/21 03:18:22;;;;;;;0.4;0.4;;;;;;;;;;;;;
2023/12/21 03:20:47;;;;;;;0.7;0.6;;;;;;;;;;;;;
2023/12/21 03:23:13;;;;;;;0.5;0.5;;;;;;;;;;;;;
2023/12/21 03:25:38;;;;;;;0.6;0.6;;;;;;;;;;;;;
2023/12/21 03:28:05;;;;;;;0.6;0.6;;;;;;;;;;;;;
2023/12/21 03:30:29;;;;;;;0.9;0.6;;;;;;;;;;;;;
2023/12/21 03:32:56;;;;;;;1.1;0.5;;;;;;;;;;;;;
2023/12/21 03:35:21;;;;;;;0.3;0.3;;;;;;;;;;;;;
2023/12/21 03:37:47;;;;;;;0.4;0.4;;;;;;;;;;;;;
2023/12/21 03:40:12;;;;;;;0.3;0.3;;;;;;;;;;;;;
2023/12/21 03:42:39;;;;;;;0.4;0.3;;;;;;;;;;;;;
2023/12/21 03:45:04;;;;;;;0.6;0.5;;;;;;;;;;;;;
2023/12/21 03:47:32;;;;;;;0.6;0.6;;;;;;;;;;;;;
2023/12/21 03:49:57;;;;;;;0.4;0.4;;;;;;;;;;;;;
2023/12/21 03:52:23;;;;;;;0.5;0.5;;;;;;;;;;;;;
2023/12/21 03:54:48;;;;;;;0.4;0.4;;;;;;;;;;;;;
2023/12/21 03:57:14;;;;;;;0.7;0.4;;;;;;;;;;;;;
2023/12/21 03:59:39;;;;;;;0.5;0.5;;;;;;;;;;;;;
2023/12/21 04:02:38;;;;;;;0.5;0.5;;;;;;;5.38;73.30859;933.2262;;;;
2023/12/21 04:05:02;;;;;;;0.4;0.4;;;;;;;5.34;73.75195;933.2239;;;;
2023/12/21 04:07:35;;;;;;;0.4;0.4;;;;;;;5.45;73.50977;933.2089;;;;
2023/12/21 04:10:09;;;;;;;0.4;0.4;;;;;;;5.39;73.72559;933.1404;;;;
2023/12/21 04:12:40;;;;;;;0.4;0.4;;;;;;;5.3;74.58984;933.1234;;;;
2023/12/21 04:15:13;;;;;;;0.7;0.5;;;;;;;5.3;74.39941;933.1006;;;;
2023/12/21 04:17:35;;;;;;;0.3;0.3;;;;;;;5.42;73.52832;933.0845;;;;
2023/12/21 04:20:00;;;;;;;0.5;0.5;;;;;;;5.3;74.49023;932.8631;;;;
2023/12/21 04:22:38;;;;;;;0.5;0.5;;;;;;;5.4;73.38867;932.8317;;;;
2023/12/21 04:25:11;;;;;;;0.6;0.6;;;;;;;5.36;73.98047;932.7695;;;;
2023/12/21 04:27:37;;;;;;;0.5;0.5;;;;;;;5.38;74.25391;932.6766;;;;
2023/12/21 04:30:02;;;;;;;10.9;8.1;;;;;;;5.44;74.10742;932.6174;;;;
2023/12/21 04:32:39;;;;;;;6.8;4.7;;;;;;;5.39;74.3916;932.6216;;;;
2023/12/21 04:35:14;;;;;;;5.3;4;;;;;;;5.3;75.08789;932.6334;;;;
2023/12/21 04:37:52;;;;;;;2.4;2.1;;;;;;;5.28;75.19727;932.5556;;;;
2023/12/21 04:40:26;;;;;;;1.6;1.5;;;;;;;5.29;74.86035;932.5156;;;;
2023/12/21 04:43:00;;;;;;;1;0.9;;;;;;;5.35;73.68555;932.4244;;;;
2023/12/21 04:45:28;;;;;;;1.1;1;;;;;;;5.31;74.52539;932.4536;;;;
2023/12/21 04:47:59;;;;;;;1.8;1.5;;;;;;;5.25;75.18945;932.5044;;;;
2023/12/21 04:50:29;;;;;;;1.7;1.6;;;;;;;5.27;74.93457;932.5475;;;;
2023/12/21 04:53:01;;;;;;;1.8;1.7;;;;;;;5.33;75.37402;932.2764;;;;
2023/12/21 04:55:26;;;;;;;1.2;1.1;;;;;;;5.38;74.3125;932.4139;;;;
2023/12/21 04:57:57;;;;;;;1.7;1.5;;;;;;;5.32;74.69434;932.2974;;;;
2023/12/21 05:00:29;;;;;;;1.5;1.3;;;;;;;5.3;75.29102;932.2703;;;;
2023/12/21 05:02:57;;;;;;;1.2;1.1;;;;;;;5.32;75.14551;932.2477;;;;
2023/12/21 05:05:30;;;;;;;1;1;;;;;;;5.38;74.99902;932.4233;;;;
2023/12/21 05:07:55;;;;;;;1.1;0.9;;;;;;;5.35;74.89453;932.5073;;;;
2023/12/21 05:10:32;;;;;;;0.7;0.7;;;;;;;5.37;74.56738;932.5328;;;;
2023/12/21 05:13:07;;;;;;;0.9;0.9;;;;;;;5.37;74.64746;932.7025;;;;
2023/12/21 05:15:36;;;;;;;1;0.9;;;;;;;5.41;74.37207;932.6728;;;;
2023/12/21 05:18:06;;;;;;;1;0.9;;;;;;;5.38;74.51563;932.7424;;;;
2023/12/21 05:20:40;;;;;;;2.4;2.2;;;;;;;5.36;74.5332;932.6897;;;;
2023/12/21 05:23:05;;;;;;;0.8;0.8;;;;;;;5.33;74.38184;932.3301;;;;
2023/12/21 05:25:30;;;;;;;1.6;0.9;;;;;;;5.48;73.9668;932.4461;;;;
2023/12/21 05:28:02;;;;;;;1.1;1.1;;;;;;;5.39;74.77441;932.4748;;;;
2023/12/21 05:30:33;;;;;;;1;0.6;;;;;;;5.43;74.30762;932.3684;;;;
2023/12/21 05:33:01;;;;;;;0.7;0.5;;;;;;;5.58;72.99121;932.1707;;;;
2023/12/21 05:35:32;;;;;;;0.9;0.7;;;;;;;5.58;73.25;932.2324;;;;
2023/12/21 05:38:00;;;;;;;1.4;1.3;;;;;;;5.54;73.80859;932.298;;;;
2023/12/21 05:40:30;;;;;;;1.1;1;;;;;;;5.51;73.86035;932.2216;;;;
2023/12/21 05:43:00;;;;;;;1.1;1;;;;;;;5.5;74.27637;932.1346;;;;
2023/12/21 05:45:33;;;;;;;1.3;1.2;;;;;;;5.49;74.16016;932.0206;;;;
2023/12/21 05:47:59;;;;;;;0.8;0.8;;;;;;;5.5;73.7334;932.1701;;;;
2023/12/21 05:50:23;;;;;;;0.7;0.7;;;;;;;5.68;72.2627;931.9769;;;;
2023/12/21 05:52:55;;;;;;;0.9;0.9;;;;;;;5.7;72.66211;932.1511;;;;
2023/12/21 05:55:24;;;;;;;2;1.5;;;;;;;5.69;73.31543;931.9905;;;;
2023/12/21 05:57:52;;;;;;;1.9;1.5;;;;;;;5.61;74.40918;931.9838;;;;
2023/12/21 06:00:17;;;;;;;1.2;1.1;;;;;;;5.62;74.83887;932.2619;;;;
2023/12/21 06:02:42;;;;;;;1.6;1.3;;;;;;;5.69;74.4209;932.1998;;;;
2023/12/21 06:05:13;;;;;;;1.3;1.2;;;;;;;5.69;73.55078;931.9897;;;;
2023/12/21 06:07:40;;;;;;;1.5;1.4;;;;;;;5.66;73.89844;931.8953;;;;
2023/12/21 06:10:05;;;;;;;2;1.8;;;;;;;5.72;74.02051;931.9507;;;;
2023/12/21 06:12:32;;;;;;;2.7;1.8;;;;;;;5.64;74.08496;931.876;;;;
2023/12/21 06:14:58;;;;;;;5.7;3.7;;;;;;;5.59;74.91113;931.7562;;;;
2023/12/21 06:17:24;;;;;;;4.1;2.5;;;;;;;5.54;75.06152;931.772;;;;
2023/12/21 06:19:54;;;;;;;3.8;2.7;;;;;;;5.53;75.49805;931.8563;;;;
2023/12/21 06:22:19;;;;;;;2.8;1.9;;;;;;;5.51;75.27051;931.7857;;;;
2023/12/21 06:24:46;;;;;;;3.1;1.9;;;;;;;5.5;75.94434;931.7927;;;;
2023/12/21 06:27:13;;;;;;;2.6;2.2;;;;;;;5.56;75.83301;931.782;;;;
2023/12/21 06:29:36;;;;;;;3.5;2.3;;;;;;;5.52;75.66602;931.6635;;;;
2023/12/21 06:32:03;;;;;;;3.9;2.6;;;;;;;5.45;76.11719;931.6647;;;;
2023/12/21 06:34:28;;;;;;;24.9;11.7;;;;;;;5.46;76.82031;931.8031;;;;
2023/12/21 06:37:03;;;;;;;5.4;3.4;;;;;;;5.52;75.9043;931.497;;;;
2023/12/21 06:39:27;;;;;;;7.2;3.7;;;;;;;5.56;75.75293;931.496;;;;
2023/12/21 06:42:00;;;;;;;3.4;2.6;;;;;;;5.55;75.70605;931.2748;;;;
2023/12/21 06:44:26;;;;;;;6.2;3.3;;;;;;;5.58;75.55273;931.4355;;;;
2023/12/21 06:46:58;;;;;;;3.5;2.3;;;;;;;5.58;75.65625;931.3408;;;;
2023/12/21 06:49:22;;;;;;;1.2;0.7;;;;;;;5.93;72.54395;931.4841;;;;
2023/12/21 06:51:55;;;;;;;2.4;1.5;;;;;;;5.99;72.72266;931.5821;;;;
2023/12/21 06:54:26;;;;;;;1.8;1.6;;;;;;;5.91;73.37402;931.3549;;;;
2023/12/21 06:56:51;;;;;;;3;1.8;;;;;;;5.87;74.12402;931.4377;;;;
2023/12/21 06:59:21;;;;;;;2.2;2;;;;;;;5.93;74.16895;931.4041;;;;
2023/12/21 07:01:46;;;;;;;2.1;1.9;;;;;;;5.91;73.98535;931.4979;;;;
2023/12/21 07:04:16;;;;;;;2.7;2;;;;;;;5.78;74.65234;931.4416;;;;
2023/12/21 07:06:41;;;;;;;3.6;1.9;;;;;;;5.77;75.10254;931.2905;;;;
2023/12/21 07:09:10;;;;;;;1.9;1.7;;;;;;;5.8;74.72363;931.2468;;;;
2023/12/21 07:11:40;;;;;;;2.2;1.3;;;;;;;5.75;74.78125;931.1583;;;;
2023/12/21 07:14:07;;;;;;;1.9;1.5;;;;;;;5.69;75.3125;931.1161;;;;
2023/12/21 07:16:34;;;;;;;4;2.8;;;;;;;5.65;75.46387;931.1552;;;;
2023/12/21 07:19:06;;;;;;;2.3;1.8;;;;;;;5.67;75.23047;931.0528;;;;
2023/12/21 07:21:32;;;;;;;1.5;1.4;;;;;;;5.75;74.92969;931.0564;;;;
2023/12/21 07:24:00;;;;;;;1.2;1.1;;;;;;;5.85;74.34766;931.127;;;;
2023/12/21 07:26:28;;;;;;;1.8;1.5;;;;;;;5.82;74.45508;931.1161;;;;
2023/12/21 07:28:55;;;;;;;2.1;1.4;;;;;;;5.86;74.58594;930.9612;;;;
2023/12/21 07:31:22;;;;;;;1.3;1.2;;;;;;;5.89;74.68457;930.9537;;;;
2023/12/21 07:33:47;;;;;;;3.4;2.6;;;;;;;5.87;74.81348;931.0356;;;;
2023/12/21 07:36:12;;;;;;;2.7;2.5;;;;;;;5.81;75.1543;930.9573;;;;
2023/12/21 07:38:47;;;;;;;4.7;3.8;;;;;;;5.84;75.72363;930.7531;;;;
2023/12/21 07:41:13;;;;;;;2.8;2;;;;;;;5.79;75.64746;930.647;;;;
2023/12/21 07:43:39;;;;;;;1.7;1.2;;;;;;;5.92;74.40527;930.7751;;;;
2023/12/21 07:46:11;;;;;;;1.9;1.2;;;;;;;6.09;72.89746;930.649;;;;
2023/12/21 07:49:01;;;;;;;0.9;0.7;;;;;;;6.15;72.89746;930.6167;;;;
2023/12/21 07:51:36;;;;;;;0.8;0.7;;;;;;;6.2;72.93945;930.4592;;;;
2023/12/21 07:54:28;;;;;;;1.1;0.8;;;;;;;6.37;72.53809;930.4158;;;;
2023/12/21 07:56:54;;;;;;;1.1;0.7;;;;;;;6.42;71.4834;930.3463;;;;
2023/12/21 07:59:19;;;;;;;0.9;0.7;;;;;;;6.64;70.40039;930.2464;;;;
2023/12/21 08:01:44;;;;;;;0.7;0.5;;;;;;;6.71;70.14063;930.1403;;;;
2023/12/21 08:04:13;;;;;;;0.7;0.6;;;;;;;6.79;70.12012;930.1728;;;;
2023/12/21 08:06:44;;;;;;;0.8;0.8;;;;;;;6.79;69.7793;930.2258;;;;
2023/12/21 08:09:12;;;;;;;0.9;0.6;;;;;;;6.91;69.71875;930.1568;;;;
2023/12/21 08:11:37;;;;;;;1.2;0.7;;;;;;;7.06;69.2793;929.9338;;;;
2023/12/21 08:14:04;;;;;;;0.7;0.6;;;;;;;7.14;67.79883;930.0081;;;;
2023/12/21 08:16:29;;;;;;;0.7;0.6;;;;;;;7.13;69.00781;929.921;;;;
2023/12/21 08:18:56;;;;;;;0.7;0.7;;;;;;;6.99;70.11914;929.8315;;;;
2023/12/21 08:21:22;;;;;;;1.5;0.9;;;;;;;6.96;70.42969;929.6453;;;;
2023/12/21 08:23:50;;;;;;;0.7;0.7;;;;;;;6.98;70.13867;929.655;;;;
2023/12/21 08:26:15;;;;;;;1.1;0.7;;;;;;;7.04;70.22852;929.5782;;;;
2023/12/21 08:28:43;;;;;;;1.2;0.8;;;;;;;7.17;69.92188;929.5952;;;;
2023/12/21 08:31:15;;;;;;;2.6;1.5;;;;;;;7.12;70.15039;929.5773;;;;
2023/12/21 08:33:41;;;;;;;0.6;0.6;;;;;;;7.22;69.2041;929.5111;;;;
2023/12/21 08:36:06;;;;;;;0.9;0.6;;;;;;;7.23;69.14746;929.5175;;;;
2023/12/21 08:38:32;;;;;;;1.4;0.6;;;;;;;7.42;69.00879;929.4011;;;;
2023/12/21 08:40:56;;;;;;;4.6;2.5;;;;;;;7.38;69.58105;929.4553;;;;
2023/12/21 08:43:21;;;;;;;1.4;1.3;;;;;;;7.38;69.35352;929.3064;;;;
2023/12/21 08:45:51;;;;;;;1;0.9;;;;;;;7.26;68.94922;929.3666;;;;
2023/12/21 08:48:17;;;;;;;2.9;1.6;;;;;;;7.26;69.08691;929.1139;;;;
2023/12/21 08:50:47;;;;;;;2.2;1.7;;;;;;;7.2;70.18555;929.2858;;;;
2023/12/21 08:53:15;;;;;;;3.7;2.2;;;;;;;7.16;70.3623;929.113;;;;
2023/12/21 08:55:40;;;;;;;1.3;1.1;;;;;;;7.24;70.03418;929.0703;;;;
2023/12/21 08:58:08;;;;;;;3.5;2.7;;;;;;;7.19;70.34375;929.2153;;;;
2023/12/21 09:00:32;;;;;;;2.5;1.8;;;;;;;7.18;70.875;929.0973;;;;
2023/12/21 09:03:01;;;;;;;1.7;1.4;;;;;;;7.23;71.23242;929.12;;;;
2023/12/21 09:05:27;;;;;;;2.4;2.1;;;;;;;7.25;71.17969;929.171;;;;
2023/12/21 09:07:57;;;;;;;2.2;2;;;;;;;7.37;71.55078;929.0156;;;;
2023/12/21 09:10:26;;;;;;;1.4;1.3;;;;;;;7.27;70.82129;928.8773;;;;
2023/12/21 09:12:51;;;;;;;1.3;1.1;;;;;;;7.38;70.0918;928.9001;;;;
2023/12/21 09:15:24;;;;;;;2.1;1.3;;;;;;;7.37;70.75879;928.8272;;;;
2023/12/21 09:17:50;;;;;;;2.4;1.2;;;;;;;7.36;70.67773;928.7908;;;;
2023/12/21 09:20:24;;;;;;;1.3;1;;;;;;;7.41;70.77637;928.8063;;;;
2023/12/21 09:22:53;;;;;;;1.2;1.1;;;;;;;7.51;69.68164;928.7411;;;;
2023/12/21 09:25:26;;;;;;;1.7;1.1;;;;;;;7.57;69.94238;928.8397;;;;
2023/12/21 09:28:02;;;;;;;2.3;1.4;;;;;;;7.59;70.02148;928.8501;;;;
2023/12/21 09:30:28;;;;;;;1.3;1.2;;;;;;;7.6;70.67285;928.8256;;;;
2023/12/21 09:32:51;;;;;;;2.9;1.9;;;;;;;7.52;70.76172;928.7872;;;;
2023/12/21 09:35:22;;;;;;;4.7;2.3;;;;;;;7.58;71.14453;928.8025;;;;
2023/12/21 09:37:50;;;;;;;2.6;1.4;;;;;;;7.6;71.03613;928.6863;;;;
2023/12/21 09:40:13;;;;;;;2.2;1.3;;;;;;;7.63;71.19922;928.6898;;;;
2023/12/21 09:42:38;;;;;;;1.2;1.1;;;;;;;7.7;71.33398;928.774;;;;
2023/12/21 09:45:03;;;;;;;1.9;1.2;;;;;;;7.78;71.05273;928.6167;;;;
2023/12/21 09:47:32;;;;;;;2.9;1;;;;;;;7.83;71.36621;928.5839;;;;
2023/12/21 09:49:57;;;;;;;4.1;2.3;;;;;;;7.83;71.23145;928.5942;;;;
2023/12/21 09:52:25;;;;;;;3.5;2.1;;;;;;;7.82;71.97754;928.4325;;;;
2023/12/21 09:54:53;;;;;;;3.2;1.7;;;;;;;7.97;70.34668;928.3911;;;;
2023/12/21 09:57:18;;;;;;;3.9;1.8;;;;;;;7.91;70.25781;928.4773;;;;
2023/12/21 09:59:43;;;;;;;4.8;1.9;;;;;;;8;69.81738;928.5148;;;;
2023/12/21 10:02:13;;;;;;;4;2.1;;;;;;;8;69.37598;928.361;;;;
2023/12/21 10:04:42;;;;;;;3.3;1.4;;;;;;;8.13;68.89648;928.4029;;;;
2023/12/21 10:07:07;;;;;;;3;1.2;;;;;;;8.14;68.5127;928.3411;;;;
2023/12/21 10:09:34;;;;;;;1.2;1.1;;;;;;;8.24;68.61914;928.2433;;;;
2023/12/21 10:11:59;;;;;;;7.9;2.3;;;;;;;8.31;69.19824;928.2584;;;;
2023/12/21 10:14:27;;;;;;;15.6;5.3;;;;;;;8.27;70.48633;927.9991;;;;
2023/12/21 10:17:10;;;;;;;107;27.3;;;;;;;8.37;69.44727;928.0835;;;;
2023/12/21 10:19:36;;;;;;;62.9;15.5;;;;;;;8.34;69.61133;927.986;;;;
2023/12/21 10:21:56;;;;;;;14.3;6;;;;;;;8.41;68.63477;927.7734;;;;
2023/12/21 10:24:23;;;;;;;14.6;6.4;;;;;;;8.46;68.50684;927.6912;;;;
2023/12/21 10:26:48;;;;;;;5.9;3;;;;;;;8.54;67.49609;927.7015;;;;
2023/12/21 10:29:16;;;;;;;14.4;6;;;;;;;8.51;67.68457;927.4763;;;;
2023/12/21 10:31:41;;;;;;;6.2;3.1;;;;;;;8.61;67.14453;927.3194;;;;
2023/12/21 10:34:09;;;;;;;10.1;4.1;;;;;;;8.82;65.77832;927.2042;;;;
2023/12/21 10:36:33;;;;;;;8.5;3.3;;;;;;;8.9;65.40234;927.2033;;;;
2023/12/21 10:38:59;;;;;;;5.5;2.3;;;;;;;8.87;65.4209;927.1501;;;;
2023/12/21 10:41:25;;;;;;;6.2;3.1;;;;;;;8.92;65.69141;927.0023;;;;
2023/12/21 10:43:52;;;;;;;1.4;1;;;;;;;9.08;64.66797;927.0228;;;;
2023/12/21 10:46:17;;;;;;;2.1;1.1;;;;;;;8.99;65.53027;926.8005;;;;
2023/12/21 10:48:42;;;;;;;2.4;1.1;;;;;;;8.94;67.0459;926.823;;;;
2023/12/21 10:51:11;;;;;;;4.7;1.4;;;;;;;9.02;66.78613;926.7198;;;;
2023/12/21 10:53:41;;;;;;;3.7;1.6;;;;;;;8.99;66.83887;926.6512;;;;
2023/12/21 10:56:05;;;;;;;8;2.1;;;;;;;9.04;67.16602;926.5847;;;;
2023/12/21 10:58:32;;;;;;;4.1;1.9;;;;;;;9.04;67.83496;926.3918;;;;
2023/12/21 11:00:57;;;;;;;9.5;2.2;;;;;;;8.99;68.12402;926.4774;;;;
2023/12/21 11:03:27;;;;;;;11.8;4.4;;;;;;;8.9;68.39453;926.5881;;;;
2023/12/21 11:05:56;;;;;;;5.3;1.4;;;;;;;8.92;67.77246;926.5634;;;;
2023/12/21 11:08:21;;;;;;;2.1;1;;;;;;;8.97;67.16602;926.5037;;;;
2023/12/21 11:10:46;;;;;;;1.3;1;;;;;;;9;66.80762;926.7449;;;;
2023/12/21 11:13:14;;;;;;;14.3;3.6;;;;;;;8.97;68.12109;926.6259;;;;
2023/12/21 11:15:39;;;;;;;9.3;3.8;;;;;;;8.97;68.11035;926.5195;;;;
2023/12/21 11:18:06;;;;;;;5.3;2.5;;;;;;;8.91;67.87402;926.5825;;;;
2023/12/21 11:20:31;;;;;;;7.8;1.8;;;;;;;8.92;68.01074;926.1071;;;;
2023/12/21 11:23:02;;;;;;;7.8;2.2;;;;;;;8.89;68.25586;926.1443;;;;
2023/12/21 11:25:27;;;;;;;3.8;1.9;;;;;;;8.96;67.62891;926.0695;;;;
2023/12/21 11:27:54;;;;;;;3.2;1.3;;;;;;;9.18;65.10352;925.9679;;;;
2023/12/21 11:30:22;;;;;;;8.2;2.6;;;;;;;9.23;65.07813;925.9258;;;;
2023/12/21 11:32:46;;;;;;;6.6;2.3;;;;;;;9.18;65.24023;925.9528;;;;
2023/12/21 11:35:16;;;;;;;4.7;2.7;;;;;;;9.2;65.11914;925.9931;;;;
2023/12/21 11:37:44;;;;;;;1.9;1.4;;;;;;;9.23;65.37402;926.1085;;;;
2023/12/21 11:40:11;;;;;;;6.7;2.2;;;;;;;9.32;64.69141;925.9372;;;;
2023/12/21 11:42:36;;;;;;;6;2.7;;;;;;;9.43;64.64063;926.1568;;;;
2023/12/21 11:45:01;;;;;;;4.6;2.8;;;;;;;9.5;64.87793;925.9451;;;;
2023/12/21 11:47:32;;;;;;;24.2;13.1;;;;;;;9.52;65.05273;925.9481;;;;
2023/12/21 11:50:01;;;;;;;11.4;5.5;;;;;;;9.45;65.47461;925.974;;;;
2023/12/21 11:52:26;;;;;;;2.1;1.7;;;;;;;9.48;64.72852;925.7783;;;;
2023/12/21 11:54:51;;;;;;;1.4;1.2;;;;;;;9.59;64.87012;925.8141;;;;
2023/12/21 11:57:18;;;;;;;10.6;3.7;;;;;;;9.62;65.67188;925.788;;;;
2023/12/21 11:59:43;;;;;;;9.1;3.7;;;;;;;9.58;65.12988;925.6409;;;;
2023/12/21 12:02:11;;;;;;;7;3.5;;;;;;;9.75;63.62793;925.5319;;;;
2023/12/21 12:04:34;;;;;;;2.5;1.7;;;;;;;9.8;63.29297;925.4313;;;;
2023/12/21 12:06:59;;;;;;;5.6;2.1;;;;;;;10.12;60.85547;925.4503;;;;
2023/12/21 12:09:25;;;;;;;5.2;1.8;;;;;;;10.18;60.14453;925.4059;;;;
2023/12/21 12:11:51;;;;;;;3.7;1.4;;;;;;;10.38;59.30469;925.2151;;;;
2023/12/21 12:14:17;;;;;;;2.5;0.9;;;;;;;10.56;57.66211;925.1242;;;;
2023/12/21 12:16:42;;;;;;;1.8;0.9;;;;;;;10.74;57.68652;925.3834;;;;
2023/12/21 12:19:12;;;;;;;0.5;0.5;;;;;;;10.86;56.77734;925.2302;;;;
2023/12/21 12:21:39;;;;;;;1.1;0.6;;;;;;;10.8;57.8418;925.0809;;;;
2023/12/21 12:24:05;;;;;;;0.3;0.3;;;;;;;10.68;57.51953;924.8883;;;;
2023/12/21 12:26:34;;;;;;;0.8;0.3;;;;;;;10.8;57.85352;924.7816;;;;
2023/12/21 12:28:57;;;;;;;2.4;1.5;;;;;;;10.89;58.84863;924.7392;;;;
2023/12/21 12:31:24;;;;;;;1.3;0.8;;;;;;;11.07;57.96973;924.6741;;;;
2023/12/21 12:33:49;;;;;;;1.7;1;;;;;;;10.97;59.97949;924.6672;;;;
2023/12/21 12:36:21;;;;;;;0.9;0.6;;;;;;;11.04;59.89746;924.5256;;;;
2023/12/21 12:38:51;;;;;;;4.9;2.4;;;;;;;10.9;60.85059;924.4891;;;;
2023/12/21 12:41:18;;;;;;;1.7;1.4;;;;;;;10.93;61.30078;924.4121;;;;
2023/12/21 12:43:46;;;;;;;2;1.3;;;;;;;10.91;61.64063;924.4738;;;;
2023/12/21 12:46:12;;;;;;;0.7;0.7;;;;;;;10.86;62.58105;924.5064;;;;
2023/12/21 12:48:37;;;;;;;0.5;0.3;;;;;;;10.81;63.56836;924.3756;;;;
2023/12/21 12:51:03;;;;;;;2.3;0.8;;;;;;;10.8;63.39453;924.1964;;;;
2023/12/21 12:53:27;;;;;;;1.8;0.8;;;;;;;10.66;64.10547;924.2342;;;;
2023/12/21 12:55:56;;;;;;;0.6;0.6;;;;;;;10.51;65.7041;924.2813;;;;
2023/12/21 12:58:21;;;;;;;0.5;0.5;;;;;;;10.44;66.36816;924.2925;;;;
2023/12/21 13:00:46;;;;;;;0.7;0.6;;;;;;;10.44;66.62988;924.2742;;;;
2023/12/21 13:03:12;;;;;;;2.7;1.4;;;;;;;10.5;66.54883;924.3323;;;;
2023/12/21 13:05:52;;;;;;;0.7;0.7;;;;;;;10.52;66.69824;924.2692;;;;
2023/12/21 13:08:12;;;;;;;2.2;0.9;;;;;;;10.48;68.55371;924.3134;;;;
2023/12/21 13:10:37;;;;;;;1.7;1;;;;;;;10.28;71.52344;924.4415;;;;
2023/12/21 13:13:03;;;;;;;1.7;0.9;;;;;;;10.34;70.5293;924.1072;;;;
2023/12/21 13:15:31;;;;;;;1.7;0.9;;;;;;;10.35;69.49219;924.3284;;;;
2023/12/21 13:18:00;;;;;;;1.1;1;;;;;;;10.3;68.57031;924.2431;;;;
2023/12/21 13:20:41;;;;;;;1.4;0.8;;;;;;;10.34;67.95996;924.3078;;;;
2023/12/21 13:23:03;;;;;;;0.8;0.8;;;;;;;10.36;67.78223;924.2224;;;;
2023/12/21 13:25:31;;;;;;;0.8;0.8;;;;;;;10.46;65.9707;923.9612;;;;
2023/12/21 13:27:56;;;;;;;0.4;0.4;;;;;;;10.51;65.4873;923.7886;;;;
2023/12/21 13:30:30;;;;;;;0.6;0.5;;;;;;;10.56;65.08398;923.7634;;;;
2023/12/21 13:33:07;;;;;;;1.1;0.8;;;;;;;10.54;65.14941;923.6083;;;;
2023/12/21 13:35:30;;;;;;;0.9;0.8;;;;;;;10.53;65.22852;923.5544;;;;
2023/12/21 13:38:00;;;;;;;0.9;0.8;;;;;;;10.53;65.0459;923.3897;;;;
2023/12/21 13:40:33;;;;;;;1;0.9;;;;;;;10.48;66.45313;923.4088;;;;
2023/12/21 13:42:59;;;;;;;1.4;1;;;;;;;10.54;66.1543;923.4348;;;;
2023/12/21 13:45:24;;;;;;;2.6;1.5;;;;;;;10.53;68.26367;923.4009;;;;
2023/12/21 13:47:50;;;;;;;5.9;3.8;;;;;;;10.36;70.39551;923.5414;;;;
2023/12/21 13:50:17;;;;;;;3.9;1.6;;;;;;;10.29;71.0459;923.4955;;;;
2023/12/21 13:52:46;;;;;;;2.2;1.3;;;;;;;10.29;73.24609;923.3961;;;;
2023/12/21 13:55:17;;;;;;;5.1;2.1;;;;;;;9.96;77.34375;923.3708;;;;
2023/12/21 13:57:42;;;;;;;2.9;1.9;;;;;;;9.7;80.06543;923.3625;;;;
2023/12/21 14:00:14;;;;;;;0.8;0.8;;;;;;;9.76;76.91992;923.2433;;;;
2023/12/21 14:02:37;;;;;;;1.1;0.9;;;;;;;9.78;76.42188;923.325;;;;
2023/12/21 14:05:02;;;;;;;1;0.8;;;;;;;9.88;75.77637;923.1437;;;;
2023/12/21 14:07:31;;;;;;;6.6;3;;;;;;;9.73;76.57227;923.1055;;;;
2023/12/21 14:09:58;;;;;;;4.3;2.4;;;;;;;9.66;77.82422;923.1294;;;;
2023/12/21 14:12:23;;;;;;;7.9;3.1;;;;;;;9.47;80.72852;923.1853;;;;
2023/12/21 14:14:53;;;;;;;4.6;1.9;;;;;;;9.43;80.99512;923.2461;;;;
2023/12/21 14:17:18;;;;;;;3.3;1.3;;;;;;;9.47;80.46582;923.2266;;;;
2023/12/21 14:19:45;;;;;;;1;0.8;;;;;;;9.45;80.39453;923.1298;;;;
2023/12/21 14:22:17;;;;;;;0.9;0.6;;;;;;;9.33;79.71191;922.945;;;;
2023/12/21 14:24:42;;;;;;;1.2;0.9;;;;;;;9.45;80.54297;922.9472;;;;
2023/12/21 14:27:07;;;;;;;2.7;1;;;;;;;9.42;81.70898;922.7966;;;;
2023/12/21 14:29:32;;;;;;;1.6;1;;;;;;;9.36;81.55078;923.0455;;;;
2023/12/21 14:31:57;;;;;;;5.7;3;;;;;;;9.27;83.41211;922.9091;;;;
2023/12/21 14:34:22;;;;;;;10.4;5.9;;;;;;;9.14;84.69434;923.0714;;;;
2023/12/21 14:36:53;;;;;;;2.5;2.1;;;;;;;9.12;84.03223;922.9945;;;;
2023/12/21 14:39:25;;;;;;;2.9;1.2;;;;;;;9.28;81.95801;923.067;;;;
2023/12/21 14:41:51;;;;;;;8;3.9;;;;;;;9.24;83.53223;923.0444;;;;
2023/12/21 14:44:16;;;;;;;9;5.3;;;;;;;;;;;;;
2023/12/21 14:46:42;;;;;;;2.8;1.6;;;;;;;;;;;;;
2023/12/21 14:49:07;;;;;;;3.7;2.4;;;;;;;;;;;;;
2023/12/21 14:51:32;;;;;;;4.7;2.7;;;;;;;;;;;;;
2023/12/21 14:53:58;;;;;;;4.5;3.1;;;;;;;;;;;;;
2023/12/21 14:56:23;;;;;;;3.9;3.1;;;;;;;;;;;;;
2023/12/21 14:58:50;;;;;;;5.4;3.2;;;;;;;;;;;;;
2023/12/21 15:01:16;;;;;;;4.8;2.8;;;;;;;;;;;;;
2023/12/21 15:03:41;;;;;;;1.8;1.4;;;;;;;;;;;;;
2023/12/21 15:06:06;;;;;;;3;2.4;;;;;;;;;;;;;
2023/12/21 15:08:31;;;;;;;2.5;2.2;;;;;;;;;;;;;
2023/12/21 15:10:57;;;;;;;4.9;3.1;;;;;;;;;;;;;
2023/12/21 15:13:27;;;;;;;4.5;2.6;;;;;;;;;;;;;
2023/12/21 15:15:54;;;;;;;5.3;3.3;;;;;;;;;;;;;
2023/12/21 15:18:21;;;;;;;1.8;0.9;;;;;;;;;;;;;
2023/12/21 15:20:45;;;;;;;2.8;1.9;;;;;;;;;;;;;
2023/12/21 15:23:10;;;;;;;3.8;2.9;;;;;;;;;;;;;
2023/12/21 15:25:37;;;;;;;3.8;2.9;;;;;;;;;;;;;
2023/12/21 15:28:02;;;;;;;3.7;2.7;;;;;;;;;;;;;
2023/12/21 15:30:30;;;;;;;1.6;1.3;;;;;;;;;;;;;
2023/12/21 15:32:55;;;;;;;2.2;2;;;;;;;;;;;;;
2023/12/21 15:35:21;;;;;;;1.7;1.3;;;;;;;;;;;;;
2023/12/21 15:37:46;;;;;;;4.5;2.8;;;;;;;;;;;;;
2023/12/21 15:40:12;;;;;;;3.8;2.3;;;;;;;;;;;;;
2023/12/21 15:42:37;;;;;;;4.4;2.9;;;;;;;;;;;;;
2023/12/21 15:45:02;;;;;;;4;2.7;;;;;;;;;;;;;
2023/12/21 15:47:28;;;;;;;3.8;3.1;;;;;;;;;;;;;
2023/12/21 15:49:55;;;;;;;2.4;2.1;;;;;;;;;;;;;
2023/12/21 15:52:19;;;;;;;3.8;2.4;;;;;;;;;;;;;
2023/12/21 15:54:44;;;;;;;2.3;1.7;;;;;;;;;;;;;
2023/12/21 15:57:09;;;;;;;2.4;2.2;;;;;;;;;;;;;
2023/12/21 15:59:36;;;;;;;20.4;14.4;;;;;;;;;;;;;
2023/12/21 16:02:02;;;;;;;6.8;4.8;;;;;;;;;;;;;
2023/12/21 16:04:28;;;;;;;24.1;16.7;;;;;;;;;;;;;
2023/12/21 16:06:53;;;;;;;52.1;29.9;;;;;;;;;;;;;
2023/12/21 16:09:19;;;;;;;7.1;4.5;;;;;;;;;;;;;
2023/12/21 16:11:44;;;;;;;17.6;11.7;;;;;;;;;;;;;
2023/12/21 16:14:10;;;;;;;1.9;1.7;;;;;;;;;;;;;
2023/12/21 16:16:35;;;;;;;2.3;1.5;;;;;;;;;;;;;